sensor_id;sensor_type;location;lat;lon;timestamp;P1;durP1;ratioP1;P2;durP2;ratioP2
45342;SDS011;31077;50.872;4.352;2023-02-28T00:01:20;3.63;;;2.53;;
45342;SDS011;31077;50.872;4.352;2023-02-28T00:03:46;4.80;;;2.53;;
45342;SDS011;31077;50.872;4.352;2023-02-28T00:06:12;5.32;;;2.55;;
45342;SDS011;31077;50.872;4.352;2023-02-28T00:08:38;4.65;;;2.88;;
45342;SDS011;31077;50.872;4.352;2023-02-28T00:11:05;5.00;;;2.50;;
45342;SDS011;31077;50.872;4.352;2023-02-28T00:13:34;4.53;;;2.80;;
45342;SDS011;31077;50.872;4.352;2023-02-28T00:16:03;4.55;;;2.53;;
45342;SDS011;31077;50.872;4.352;2023-02-28T00:18:30;4.05;;;2.83;;
45342;SDS011;31077;50.872;4.352;2023-02-28T00:20:56;4.30;;;2.85;;
45342;SDS011;31077;50.872;4.352;2023-02-28T00:23:22;4.55;;;2.83;;
45342;SDS011;31077;50.872;4.352;2023-02-28T00:25:49;3.35;;;2.38;;
45342;SDS011;31077;50.872;4.352;2023-02-28T00:28:16;3.90;;;2.65;;
45342;SDS011;31077;50.872;4.352;2023-02-28T00:30:42;5.55;;;2.40;;
45342;SDS011;31077;50.872;4.352;2023-02-28T00:33:07;3.95;;;2.47;;
45342;SDS011;31077;50.872;4.352;2023-02-28T00:35:33;4.43;;;3.10;;
45342;SDS011;31077;50.872;4.352;2023-02-28T00:37:59;5.25;;;2.65;;
45342;SDS011;31077;50.872;4.352;2023-02-28T00:40:25;4.53;;;2.72;;
45342;SDS011;31077;50.872;4.352;2023-02-28T00:42:51;3.05;;;2.65;;
45342;SDS011;31077;50.872;4.352;2023-02-28T00:45:17;5.60;;;2.88;;
45342;SDS011;31077;50.872;4.352;2023-02-28T00:47:43;4.28;;;2.65;;
45342;SDS011;31077;50.872;4.352;2023-02-28T00:50:11;4.32;;;2.47;;
45342;SDS011;31077;50.872;4.352;2023-02-28T00:52:37;16.00;;;3.95;;
45342;SDS011;31077;50.872;4.352;2023-02-28T00:55:03;3.60;;;2.33;;
45342;SDS011;31077;50.872;4.352;2023-02-28T00:57:29;6.63;;;2.65;;
45342;SDS011;31077;50.872;4.352;2023-02-28T00:59:55;5.32;;;2.65;;
45342;SDS011;31077;50.872;4.352;2023-02-28T01:02:22;5.93;;;2.55;;
45342;SDS011;31077;50.872;4.352;2023-02-28T01:04:48;4.43;;;2.72;;
45342;SDS011;31077;50.872;4.352;2023-02-28T01:07:14;3.88;;;2.80;;
45342;SDS011;31077;50.872;4.352;2023-02-28T01:09:40;5.07;;;3.05;;
45342;SDS011;31077;50.872;4.352;2023-02-28T01:12:06;3.80;;;2.30;;
45342;SDS011;31077;50.872;4.352;2023-02-28T01:14:33;5.25;;;2.97;;
45342;SDS011;31077;50.872;4.352;2023-02-28T01:17:00;4.65;;;2.25;;
45342;SDS011;31077;50.872;4.352;2023-02-28T01:19:26;5.40;;;3.08;;
45342;SDS011;31077;50.872;4.352;2023-02-28T01:21:51;4.35;;;2.63;;
45342;SDS011;31077;50.872;4.352;2023-02-28T01:24:17;4.50;;;2.70;;
45342;SDS011;31077;50.872;4.352;2023-02-28T01:26:43;3.33;;;2.28;;
45342;SDS011;31077;50.872;4.352;2023-02-28T01:29:09;5.28;;;2.88;;
45342;SDS011;31077;50.872;4.352;2023-02-28T01:31:35;4.13;;;2.85;;
45342;SDS011;31077;50.872;4.352;2023-02-28T01:34:01;3.38;;;2.33;;
45342;SDS011;31077;50.872;4.352;2023-02-28T01:36:27;6.78;;;2.53;;
45342;SDS011;31077;50.872;4.352;2023-02-28T01:38:53;14.95;;;3.03;;
45342;SDS011;31077;50.872;4.352;2023-02-28T01:41:23;7.68;;;2.40;;
45342;SDS011;31077;50.872;4.352;2023-02-28T01:46:18;3.67;;;2.45;;
45342;SDS011;31077;50.872;4.352;2023-02-28T01:48:45;5.63;;;2.03;;
45342;SDS011;31077;50.872;4.352;2023-02-28T01:51:35;6.75;;;2.63;;
45342;SDS011;31077;50.872;4.352;2023-02-28T01:54:27;4.22;;;2.47;;
45342;SDS011;31077;50.872;4.352;2023-02-28T01:57:00;4.20;;;2.65;;
45342;SDS011;31077;50.872;4.352;2023-02-28T01:59:31;4.93;;;2.50;;
45342;SDS011;31077;50.872;4.352;2023-02-28T02:02:00;4.25;;;2.53;;
45342;SDS011;31077;50.872;4.352;2023-02-28T02:04:41;4.35;;;2.38;;
45342;SDS011;31077;50.872;4.352;2023-02-28T02:07:20;5.07;;;2.65;;
45342;SDS011;31077;50.872;4.352;2023-02-28T02:09:47;3.60;;;2.47;;
45342;SDS011;31077;50.872;4.352;2023-02-28T02:12:17;4.72;;;2.63;;
45342;SDS011;31077;50.872;4.352;2023-02-28T02:15:05;3.95;;;2.10;;
45342;SDS011;31077;50.872;4.352;2023-02-28T02:18:09;3.78;;;2.65;;
45342;SDS011;31077;50.872;4.352;2023-02-28T02:23:58;4.18;;;2.40;;
45342;SDS011;31077;50.872;4.352;2023-02-28T02:37:36;3.03;;;2.27;;
45342;SDS011;31077;50.872;4.352;2023-02-28T02:40:08;4.60;;;2.60;;
45342;SDS011;31077;50.872;4.352;2023-02-28T02:42:56;5.22;;;2.95;;
45342;SDS011;31077;50.872;4.352;2023-02-28T02:45:37;3.63;;;2.50;;
45342;SDS011;31077;50.872;4.352;2023-02-28T02:48:08;6.65;;;2.50;;
45342;SDS011;31077;50.872;4.352;2023-02-28T02:50:41;4.63;;;2.72;;
45342;SDS011;31077;50.872;4.352;2023-02-28T02:53:10;4.80;;;2.47;;
45342;SDS011;31077;50.872;4.352;2023-02-28T02:55:40;5.07;;;2.45;;
45342;SDS011;31077;50.872;4.352;2023-02-28T02:58:10;6.13;;;2.53;;
45342;SDS011;31077;50.872;4.352;2023-02-28T03:00:41;3.80;;;2.67;;
45342;SDS011;31077;50.872;4.352;2023-02-28T03:03:11;4.30;;;2.50;;
45342;SDS011;31077;50.872;4.352;2023-02-28T03:05:45;3.90;;;2.17;;
45342;SDS011;31077;50.872;4.352;2023-02-28T03:08:15;5.35;;;3.05;;
45342;SDS011;31077;50.872;4.352;2023-02-28T03:10:42;3.55;;;2.33;;
45342;SDS011;31077;50.872;4.352;2023-02-28T03:16:33;4.97;;;2.97;;
45342;SDS011;31077;50.872;4.352;2023-02-28T03:26:49;3.83;;;2.50;;
45342;SDS011;31077;50.872;4.352;2023-02-28T03:29:32;5.13;;;2.45;;
45342;SDS011;31077;50.872;4.352;2023-02-28T03:32:04;4.32;;;2.67;;
45342;SDS011;31077;50.872;4.352;2023-02-28T03:35:02;4.60;;;2.83;;
45342;SDS011;31077;50.872;4.352;2023-02-28T03:37:35;3.13;;;2.22;;
45342;SDS011;31077;50.872;4.352;2023-02-28T03:40:05;4.18;;;2.47;;
45342;SDS011;31077;50.872;4.352;2023-02-28T03:42:35;4.47;;;2.70;;
45342;SDS011;31077;50.872;4.352;2023-02-28T03:45:13;4.32;;;2.72;;
45342;SDS011;31077;50.872;4.352;2023-02-28T03:47:53;3.67;;;2.55;;
45342;SDS011;31077;50.872;4.352;2023-02-28T03:56:02;4.85;;;2.55;;
45342;SDS011;31077;50.872;4.352;2023-02-28T03:58:38;6.72;;;2.83;;
45342;SDS011;31077;50.872;4.352;2023-02-28T04:01:12;5.75;;;2.88;;
45342;SDS011;31077;50.872;4.352;2023-02-28T04:03:45;5.10;;;2.88;;
45342;SDS011;31077;50.872;4.352;2023-02-28T04:06:18;4.75;;;2.75;;
45342;SDS011;31077;50.872;4.352;2023-02-28T04:08:46;4.70;;;2.97;;
45342;SDS011;31077;50.872;4.352;2023-02-28T04:11:16;7.88;;;3.55;;
45342;SDS011;31077;50.872;4.352;2023-02-28T04:13:48;5.32;;;3.10;;
45342;SDS011;31077;50.872;4.352;2023-02-28T04:16:13;3.97;;;2.50;;
45342;SDS011;31077;50.872;4.352;2023-02-28T04:18:39;4.03;;;2.85;;
45342;SDS011;31077;50.872;4.352;2023-02-28T04:21:08;4.50;;;2.63;;
45342;SDS011;31077;50.872;4.352;2023-02-28T04:23:34;4.43;;;2.67;;
45342;SDS011;31077;50.872;4.352;2023-02-28T04:26:00;5.38;;;3.30;;
45342;SDS011;31077;50.872;4.352;2023-02-28T04:28:26;4.43;;;2.88;;
45342;SDS011;31077;50.872;4.352;2023-02-28T04:30:59;5.32;;;2.88;;
45342;SDS011;31077;50.872;4.352;2023-02-28T04:33:29;5.10;;;2.65;;
45342;SDS011;31077;50.872;4.352;2023-02-28T04:36:03;4.72;;;2.83;;
45342;SDS011;31077;50.872;4.352;2023-02-28T04:38:32;4.30;;;2.78;;
45342;SDS011;31077;50.872;4.352;2023-02-28T04:41:00;3.75;;;2.47;;
45342;SDS011;31077;50.872;4.352;2023-02-28T04:43:27;4.60;;;2.72;;
45342;SDS011;31077;50.872;4.352;2023-02-28T04:45:53;4.88;;;2.97;;
45342;SDS011;31077;50.872;4.352;2023-02-28T04:48:23;4.68;;;3.20;;
45342;SDS011;31077;50.872;4.352;2023-02-28T04:50:50;5.07;;;2.72;;
45342;SDS011;31077;50.872;4.352;2023-02-28T04:53:16;3.85;;;2.78;;
45342;SDS011;31077;50.872;4.352;2023-02-28T04:55:42;4.95;;;2.90;;
45342;SDS011;31077;50.872;4.352;2023-02-28T04:58:08;5.32;;;2.97;;
45342;SDS011;31077;50.872;4.352;2023-02-28T05:00:34;4.72;;;2.88;;
45342;SDS011;31077;50.872;4.352;2023-02-28T05:03:00;3.53;;;2.60;;
45342;SDS011;31077;50.872;4.352;2023-02-28T05:05:26;4.43;;;2.83;;
45342;SDS011;31077;50.872;4.352;2023-02-28T05:07:52;4.45;;;2.67;;
45342;SDS011;31077;50.872;4.352;2023-02-28T05:10:20;5.90;;;2.70;;
45342;SDS011;31077;50.872;4.352;2023-02-28T05:12:47;3.97;;;2.75;;
45342;SDS011;31077;50.872;4.352;2023-02-28T05:15:13;4.53;;;3.05;;
45342;SDS011;31077;50.872;4.352;2023-02-28T05:17:41;3.85;;;2.85;;
45342;SDS011;31077;50.872;4.352;2023-02-28T05:20:07;5.00;;;2.67;;
45342;SDS011;31077;50.872;4.352;2023-02-28T05:22:36;4.93;;;2.63;;
45342;SDS011;31077;50.872;4.352;2023-02-28T05:25:03;3.92;;;2.35;;
45342;SDS011;31077;50.872;4.352;2023-02-28T05:27:32;4.20;;;2.65;;
45342;SDS011;31077;50.872;4.352;2023-02-28T05:29:58;3.75;;;2.42;;
45342;SDS011;31077;50.872;4.352;2023-02-28T05:32:24;4.50;;;3.03;;
45342;SDS011;31077;50.872;4.352;2023-02-28T05:34:50;4.07;;;2.72;;
45342;SDS011;31077;50.872;4.352;2023-02-28T05:37:16;6.40;;;2.95;;
45342;SDS011;31077;50.872;4.352;2023-02-28T05:39:42;4.93;;;2.85;;
45342;SDS011;31077;50.872;4.352;2023-02-28T05:42:08;5.18;;;3.15;;
45342;SDS011;31077;50.872;4.352;2023-02-28T05:44:34;4.38;;;2.30;;
45342;SDS011;31077;50.872;4.352;2023-02-28T05:47:01;6.68;;;2.60;;
45342;SDS011;31077;50.872;4.352;2023-02-28T05:49:26;4.13;;;2.50;;
45342;SDS011;31077;50.872;4.352;2023-02-28T05:51:52;3.88;;;2.70;;
45342;SDS011;31077;50.872;4.352;2023-02-28T05:54:18;6.88;;;2.97;;
45342;SDS011;31077;50.872;4.352;2023-02-28T05:56:44;3.00;;;2.40;;
45342;SDS011;31077;50.872;4.352;2023-02-28T05:59:11;3.60;;;2.60;;
45342;SDS011;31077;50.872;4.352;2023-02-28T06:01:39;4.20;;;2.58;;
45342;SDS011;31077;50.872;4.352;2023-02-28T06:04:13;3.83;;;2.47;;
45342;SDS011;31077;50.872;4.352;2023-02-28T06:06:43;4.50;;;3.00;;
45342;SDS011;31077;50.872;4.352;2023-02-28T06:09:10;2.85;;;2.35;;
45342;SDS011;31077;50.872;4.352;2023-02-28T06:11:36;5.60;;;2.70;;
45342;SDS011;31077;50.872;4.352;2023-02-28T06:14:02;3.67;;;2.72;;
45342;SDS011;31077;50.872;4.352;2023-02-28T06:16:29;4.13;;;2.60;;
45342;SDS011;31077;50.872;4.352;2023-02-28T06:18:57;3.45;;;2.70;;
45342;SDS011;31077;50.872;4.352;2023-02-28T06:21:24;5.35;;;2.50;;
45342;SDS011;31077;50.872;4.352;2023-02-28T06:23:50;4.38;;;2.72;;
45342;SDS011;31077;50.872;4.352;2023-02-28T06:26:16;4.22;;;2.90;;
45342;SDS011;31077;50.872;4.352;2023-02-28T06:28:41;6.18;;;3.05;;
45342;SDS011;31077;50.872;4.352;2023-02-28T06:31:08;4.72;;;2.90;;
45342;SDS011;31077;50.872;4.352;2023-02-28T06:33:40;5.22;;;2.95;;
45342;SDS011;31077;50.872;4.352;2023-02-28T06:36:07;4.60;;;2.80;;
45342;SDS011;31077;50.872;4.352;2023-02-28T06:38:34;4.57;;;2.95;;
45342;SDS011;31077;50.872;4.352;2023-02-28T06:41:01;5.90;;;2.67;;
45342;SDS011;31077;50.872;4.352;2023-02-28T06:43:30;4.55;;;2.85;;
45342;SDS011;31077;50.872;4.352;2023-02-28T06:45:59;4.28;;;2.60;;
45342;SDS011;31077;50.872;4.352;2023-02-28T06:48:27;6.22;;;2.97;;
45342;SDS011;31077;50.872;4.352;2023-02-28T06:51:01;4.88;;;2.40;;
45342;SDS011;31077;50.872;4.352;2023-02-28T06:53:38;3.45;;;2.55;;
45342;SDS011;31077;50.872;4.352;2023-02-28T06:56:05;6.40;;;2.35;;
45342;SDS011;31077;50.872;4.352;2023-02-28T06:58:33;5.47;;;2.72;;
45342;SDS011;31077;50.872;4.352;2023-02-28T07:00:59;5.22;;;2.40;;
45342;SDS011;31077;50.872;4.352;2023-02-28T07:03:25;4.50;;;2.28;;
45342;SDS011;31077;50.872;4.352;2023-02-28T07:05:51;4.15;;;2.65;;
45342;SDS011;31077;50.872;4.352;2023-02-28T07:08:17;4.22;;;2.50;;
45342;SDS011;31077;50.872;4.352;2023-02-28T07:10:43;4.55;;;2.60;;
45342;SDS011;31077;50.872;4.352;2023-02-28T07:13:09;5.03;;;2.47;;
45342;SDS011;31077;50.872;4.352;2023-02-28T07:15:36;3.75;;;2.30;;
45342;SDS011;31077;50.872;4.352;2023-02-28T07:18:02;4.15;;;2.70;;
45342;SDS011;31077;50.872;4.352;2023-02-28T07:20:29;4.40;;;2.38;;
45342;SDS011;31077;50.872;4.352;2023-02-28T07:22:55;4.43;;;2.55;;
45342;SDS011;31077;50.872;4.352;2023-02-28T07:25:22;9.35;;;2.85;;
45342;SDS011;31077;50.872;4.352;2023-02-28T07:27:48;5.13;;;2.65;;
45342;SDS011;31077;50.872;4.352;2023-02-28T07:30:14;5.38;;;2.65;;
45342;SDS011;31077;50.872;4.352;2023-02-28T07:32:40;5.55;;;2.30;;
45342;SDS011;31077;50.872;4.352;2023-02-28T07:35:06;3.28;;;2.20;;
45342;SDS011;31077;50.872;4.352;2023-02-28T07:37:32;8.07;;;2.38;;
45342;SDS011;31077;50.872;4.352;2023-02-28T07:40:02;5.80;;;2.28;;
45342;SDS011;31077;50.872;4.352;2023-02-28T07:42:31;4.25;;;2.55;;
45342;SDS011;31077;50.872;4.352;2023-02-28T07:44:57;4.50;;;2.20;;
45342;SDS011;31077;50.872;4.352;2023-02-28T07:47:24;3.63;;;2.65;;
45342;SDS011;31077;50.872;4.352;2023-02-28T07:49:50;10.98;;;2.42;;
45342;SDS011;31077;50.872;4.352;2023-02-28T07:52:15;3.45;;;2.42;;
45342;SDS011;31077;50.872;4.352;2023-02-28T07:54:41;5.53;;;2.63;;
45342;SDS011;31077;50.872;4.352;2023-02-28T07:57:07;2.92;;;2.38;;
45342;SDS011;31077;50.872;4.352;2023-02-28T07:59:33;3.85;;;2.55;;
45342;SDS011;31077;50.872;4.352;2023-02-28T08:01:59;3.30;;;2.22;;
45342;SDS011;31077;50.872;4.352;2023-02-28T08:04:25;4.47;;;2.80;;
45342;SDS011;31077;50.872;4.352;2023-02-28T08:06:50;3.55;;;2.40;;
45342;SDS011;31077;50.872;4.352;2023-02-28T08:09:21;3.95;;;2.47;;
45342;SDS011;31077;50.872;4.352;2023-02-28T08:11:47;3.53;;;2.47;;
45342;SDS011;31077;50.872;4.352;2023-02-28T08:14:12;3.20;;;2.15;;
45342;SDS011;31077;50.872;4.352;2023-02-28T08:16:38;3.47;;;2.10;;
45342;SDS011;31077;50.872;4.352;2023-02-28T08:19:04;3.50;;;2.47;;
45342;SDS011;31077;50.872;4.352;2023-02-28T08:21:30;3.30;;;2.05;;
45342;SDS011;31077;50.872;4.352;2023-02-28T08:23:56;6.10;;;2.40;;
45342;SDS011;31077;50.872;4.352;2023-02-28T08:26:22;3.83;;;2.42;;
45342;SDS011;31077;50.872;4.352;2023-02-28T08:28:48;5.50;;;2.58;;
45342;SDS011;31077;50.872;4.352;2023-02-28T08:31:14;6.35;;;2.35;;
45342;SDS011;31077;50.872;4.352;2023-02-28T08:33:41;3.88;;;2.13;;
45342;SDS011;31077;50.872;4.352;2023-02-28T08:36:09;6.82;;;2.58;;
45342;SDS011;31077;50.872;4.352;2023-02-28T08:38:36;4.85;;;2.05;;
45342;SDS011;31077;50.872;4.352;2023-02-28T08:41:07;3.40;;;2.08;;
45342;SDS011;31077;50.872;4.352;2023-02-28T08:43:34;4.03;;;2.40;;
45342;SDS011;31077;50.872;4.352;2023-02-28T08:46:01;4.45;;;1.90;;
45342;SDS011;31077;50.872;4.352;2023-02-28T08:48:28;8.15;;;2.28;;
45342;SDS011;31077;50.872;4.352;2023-02-28T08:51:00;4.28;;;2.45;;
45342;SDS011;31077;50.872;4.352;2023-02-28T08:53:28;3.75;;;1.98;;
45342;SDS011;31077;50.872;4.352;2023-02-28T08:55:58;3.50;;;2.15;;
45342;SDS011;31077;50.872;4.352;2023-02-28T08:58:25;5.75;;;1.88;;
45342;SDS011;31077;50.872;4.352;2023-02-28T09:00:51;3.65;;;1.92;;
45342;SDS011;31077;50.872;4.352;2023-02-28T09:03:18;3.60;;;1.92;;
45342;SDS011;31077;50.872;4.352;2023-02-28T09:05:54;3.88;;;1.88;;
45342;SDS011;31077;50.872;4.352;2023-02-28T09:08:21;3.55;;;1.80;;
45342;SDS011;31077;50.872;4.352;2023-02-28T09:10:48;8.27;;;2.15;;
45342;SDS011;31077;50.872;4.352;2023-02-28T09:13:14;3.40;;;1.88;;
45342;SDS011;31077;50.872;4.352;2023-02-28T09:15:40;11.75;;;2.08;;
45342;SDS011;31077;50.872;4.352;2023-02-28T09:18:06;12.82;;;3.60;;
45342;SDS011;31077;50.872;4.352;2023-02-28T09:20:32;2.95;;;1.58;;
45342;SDS011;31077;50.872;4.352;2023-02-28T09:22:57;10.05;;;1.65;;
45342;SDS011;31077;50.872;4.352;2023-02-28T09:25:23;3.75;;;1.80;;
45342;SDS011;31077;50.872;4.352;2023-02-28T09:27:49;2.72;;;1.60;;
45342;SDS011;31077;50.872;4.352;2023-02-28T09:30:15;14.13;;;2.22;;
45342;SDS011;31077;50.872;4.352;2023-02-28T09:32:41;8.25;;;1.90;;
45342;SDS011;31077;50.872;4.352;2023-02-28T09:35:07;6.68;;;2.10;;
45342;SDS011;31077;50.872;4.352;2023-02-28T09:37:38;3.88;;;1.75;;
45342;SDS011;31077;50.872;4.352;2023-02-28T09:40:04;9.13;;;2.15;;
45342;SDS011;31077;50.872;4.352;2023-02-28T09:42:31;4.60;;;1.77;;
45342;SDS011;31077;50.872;4.352;2023-02-28T09:44:58;7.25;;;2.25;;
45342;SDS011;31077;50.872;4.352;2023-02-28T09:47:33;3.53;;;1.55;;
45342;SDS011;31077;50.872;4.352;2023-02-28T09:50:22;3.65;;;1.75;;
45342;SDS011;31077;50.872;4.352;2023-02-28T09:52:52;5.53;;;1.95;;
45342;SDS011;31077;50.872;4.352;2023-02-28T09:55:28;3.75;;;1.80;;
45342;SDS011;31077;50.872;4.352;2023-02-28T09:57:58;5.47;;;1.65;;
45342;SDS011;31077;50.872;4.352;2023-02-28T10:00:39;7.00;;;1.70;;
45342;SDS011;31077;50.872;4.352;2023-02-28T10:03:17;4.20;;;2.00;;
45342;SDS011;31077;50.872;4.352;2023-02-28T10:08:28;6.45;;;1.83;;
45342;SDS011;31077;50.872;4.352;2023-02-28T10:11:00;4.68;;;1.67;;
45342;SDS011;31077;50.872;4.352;2023-02-28T10:16:23;5.50;;;1.40;;
45342;SDS011;31077;50.872;4.352;2023-02-28T10:18:56;1.60;;;1.20;;
45342;SDS011;31077;50.872;4.352;2023-02-28T10:21:38;4.38;;;1.35;;
45342;SDS011;31077;50.872;4.352;2023-02-28T10:24:14;2.85;;;1.48;;
45342;SDS011;31077;50.872;4.352;2023-02-28T10:26:46;2.17;;;1.33;;
45342;SDS011;31077;50.872;4.352;2023-02-28T10:29:13;2.97;;;1.60;;
45342;SDS011;31077;50.872;4.352;2023-02-28T10:31:39;3.20;;;1.27;;
45342;SDS011;31077;50.872;4.352;2023-02-28T10:34:06;2.60;;;1.73;;
45342;SDS011;31077;50.872;4.352;2023-02-28T10:36:32;2.13;;;1.20;;
45342;SDS011;31077;50.872;4.352;2023-02-28T10:39:01;2.15;;;1.10;;
45342;SDS011;31077;50.872;4.352;2023-02-28T10:42:18;2.38;;;1.55;;
45342;SDS011;31077;50.872;4.352;2023-02-28T10:44:46;2.25;;;1.15;;
45342;SDS011;31077;50.872;4.352;2023-02-28T10:47:16;3.65;;;1.52;;
45342;SDS011;31077;50.872;4.352;2023-02-28T10:49:48;3.20;;;1.35;;
45342;SDS011;31077;50.872;4.352;2023-02-28T10:52:39;4.43;;;1.77;;
45342;SDS011;31077;50.872;4.352;2023-02-28T10:58:02;7.25;;;1.60;;
45342;SDS011;31077;50.872;4.352;2023-02-28T11:00:32;4.85;;;1.20;;
45342;SDS011;31077;50.872;4.352;2023-02-28T11:03:00;1.48;;;1.00;;
45342;SDS011;31077;50.872;4.352;2023-02-28T11:05:27;2.40;;;1.20;;
45342;SDS011;31077;50.872;4.352;2023-02-28T11:08:14;2.67;;;1.40;;
45342;SDS011;31077;50.872;4.352;2023-02-28T11:10:54;2.17;;;1.20;;
45342;SDS011;31077;50.872;4.352;2023-02-28T11:13:25;1.80;;;1.00;;
45342;SDS011;31077;50.872;4.352;2023-02-28T11:15:58;1.95;;;1.27;;
45342;SDS011;31077;50.872;4.352;2023-02-28T11:18:29;4.85;;;1.75;;
45342;SDS011;31077;50.872;4.352;2023-02-28T11:21:07;1.92;;;1.20;;
45342;SDS011;31077;50.872;4.352;2023-02-28T11:23:35;1.65;;;1.20;;
45342;SDS011;31077;50.872;4.352;2023-02-28T11:26:05;2.35;;;1.17;;
45342;SDS011;31077;50.872;4.352;2023-02-28T11:28:35;1.88;;;1.30;;
45342;SDS011;31077;50.872;4.352;2023-02-28T11:31:14;1.95;;;1.45;;
45342;SDS011;31077;50.872;4.352;2023-02-28T11:33:51;2.63;;;1.33;;
45342;SDS011;31077;50.872;4.352;2023-02-28T11:36:22;1.92;;;1.10;;
45342;SDS011;31077;50.872;4.352;2023-02-28T11:38:50;2.90;;;1.40;;
45342;SDS011;31077;50.872;4.352;2023-02-28T12:08:26;1.50;;;1.08;;
45342;SDS011;31077;50.872;4.352;2023-02-28T12:17:14;2.78;;;1.48;;
45342;SDS011;31077;50.872;4.352;2023-02-28T12:22:42;2.83;;;1.40;;
45342;SDS011;31077;50.872;4.352;2023-02-28T12:25:20;3.22;;;1.30;;
45342;SDS011;31077;50.872;4.352;2023-02-28T12:28:09;2.05;;;1.20;;
45342;SDS011;31077;50.872;4.352;2023-02-28T12:30:41;1.75;;;1.17;;
45342;SDS011;31077;50.872;4.352;2023-02-28T12:33:16;3.78;;;1.52;;
45342;SDS011;31077;50.872;4.352;2023-02-28T12:38:27;3.25;;;1.63;;
45342;SDS011;31077;50.872;4.352;2023-02-28T12:41:09;1.92;;;1.17;;
45342;SDS011;31077;50.872;4.352;2023-02-28T12:44:11;2.72;;;1.75;;
45342;SDS011;31077;50.872;4.352;2023-02-28T12:46:44;3.50;;;1.25;;
45342;SDS011;31077;50.872;4.352;2023-02-28T12:49:19;1.73;;;1.10;;
45342;SDS011;31077;50.872;4.352;2023-02-28T12:51:52;1.70;;;1.20;;
45342;SDS011;31077;50.872;4.352;2023-02-28T12:59:54;3.45;;;1.42;;
45342;SDS011;31077;50.872;4.352;2023-02-28T13:05:34;4.38;;;1.25;;
45342;SDS011;31077;50.872;4.352;2023-02-28T13:11:29;2.35;;;1.20;;
45342;SDS011;31077;50.872;4.352;2023-02-28T13:14:02;3.53;;;1.45;;
45342;SDS011;31077;50.872;4.352;2023-02-28T13:16:46;2.60;;;1.10;;
45342;SDS011;31077;50.872;4.352;2023-02-28T13:19:23;1.80;;;1.35;;
45342;SDS011;31077;50.872;4.352;2023-02-28T13:21:54;2.25;;;1.33;;
45342;SDS011;31077;50.872;4.352;2023-02-28T13:27:35;3.15;;;1.50;;
45342;SDS011;31077;50.872;4.352;2023-02-28T13:33:21;2.20;;;1.20;;
45342;SDS011;31077;50.872;4.352;2023-02-28T13:35:48;1.73;;;1.30;;
45342;SDS011;31077;50.872;4.352;2023-02-28T13:38:31;5.82;;;1.80;;
45342;SDS011;31077;50.872;4.352;2023-02-28T13:44:13;2.65;;;1.45;;
45342;SDS011;31077;50.872;4.352;2023-02-28T13:51:50;2.72;;;1.25;;
45342;SDS011;31077;50.872;4.352;2023-02-28T13:57:05;1.60;;;1.30;;
45342;SDS011;31077;50.872;4.352;2023-02-28T13:59:46;1.42;;;1.10;;
45342;SDS011;31077;50.872;4.352;2023-02-28T14:05:15;2.17;;;1.48;;
45342;SDS011;31077;50.872;4.352;2023-02-28T14:07:50;1.40;;;1.30;;
45342;SDS011;31077;50.872;4.352;2023-02-28T14:10:31;1.50;;;1.15;;
45342;SDS011;31077;50.872;4.352;2023-02-28T14:13:03;1.95;;;1.23;;
45342;SDS011;31077;50.872;4.352;2023-02-28T14:16:03;1.77;;;1.55;;
45342;SDS011;31077;50.872;4.352;2023-02-28T14:18:35;1.85;;;1.23;;
45342;SDS011;31077;50.872;4.352;2023-02-28T14:23:55;2.10;;;1.40;;
45342;SDS011;31077;50.872;4.352;2023-02-28T14:29:07;1.73;;;1.33;;
45342;SDS011;31077;50.872;4.352;2023-02-28T14:35:00;2.90;;;1.30;;
45342;SDS011;31077;50.872;4.352;2023-02-28T14:37:46;3.25;;;1.50;;
45342;SDS011;31077;50.872;4.352;2023-02-28T14:40:26;4.80;;;1.60;;
45342;SDS011;31077;50.872;4.352;2023-02-28T14:42:59;1.83;;;1.40;;
45342;SDS011;31077;50.872;4.352;2023-02-28T14:45:27;2.55;;;1.70;;
45342;SDS011;31077;50.872;4.352;2023-02-28T14:47:55;1.38;;;1.27;;
45342;SDS011;31077;50.872;4.352;2023-02-28T14:50:33;2.88;;;1.45;;
45342;SDS011;31077;50.872;4.352;2023-02-28T14:53:02;2.22;;;1.50;;
45342;SDS011;31077;50.872;4.352;2023-02-28T14:55:29;1.75;;;1.40;;
45342;SDS011;31077;50.872;4.352;2023-02-28T14:57:58;2.92;;;1.60;;
45342;SDS011;31077;50.872;4.352;2023-02-28T15:00:29;1.88;;;1.35;;
45342;SDS011;31077;50.872;4.352;2023-02-28T15:02:56;1.77;;;1.50;;
45342;SDS011;31077;50.872;4.352;2023-02-28T15:05:28;2.42;;;1.58;;
45342;SDS011;31077;50.872;4.352;2023-02-28T15:10:42;1.40;;;1.15;;
45342;SDS011;31077;50.872;4.352;2023-02-28T15:13:12;1.73;;;1.38;;
45342;SDS011;31077;50.872;4.352;2023-02-28T15:20:46;1.48;;;1.30;;
45342;SDS011;31077;50.872;4.352;2023-02-28T15:23:12;2.05;;;1.40;;
45342;SDS011;31077;50.872;4.352;2023-02-28T15:25:39;3.97;;;1.55;;
45342;SDS011;31077;50.872;4.352;2023-02-28T15:28:09;4.13;;;1.65;;
45342;SDS011;31077;50.872;4.352;2023-02-28T15:30:51;1.52;;;1.20;;
45342;SDS011;31077;50.872;4.352;2023-02-28T15:33:22;2.33;;;1.73;;
45342;SDS011;31077;50.872;4.352;2023-02-28T15:35:50;2.85;;;1.55;;
45342;SDS011;31077;50.872;4.352;2023-02-28T15:38:28;1.92;;;1.42;;
45342;SDS011;31077;50.872;4.352;2023-02-28T15:40:55;2.63;;;1.50;;
45342;SDS011;31077;50.872;4.352;2023-02-28T15:43:32;2.08;;;1.63;;
45342;SDS011;31077;50.872;4.352;2023-02-28T15:46:03;1.70;;;1.27;;
45342;SDS011;31077;50.872;4.352;2023-02-28T15:48:44;2.40;;;1.70;;
45342;SDS011;31077;50.872;4.352;2023-02-28T15:51:32;4.22;;;1.85;;
45342;SDS011;31077;50.872;4.352;2023-02-28T15:56:34;1.83;;;1.30;;
45342;SDS011;31077;50.872;4.352;2023-02-28T15:59:07;2.05;;;1.40;;
45342;SDS011;31077;50.872;4.352;2023-02-28T16:01:46;2.53;;;1.60;;
45342;SDS011;31077;50.872;4.352;2023-02-28T16:04:20;2.53;;;1.70;;
45342;SDS011;31077;50.872;4.352;2023-02-28T16:09:23;2.47;;;1.60;;
45342;SDS011;31077;50.872;4.352;2023-02-28T16:11:50;1.98;;;1.33;;
45342;SDS011;31077;50.872;4.352;2023-02-28T16:14:19;2.40;;;1.30;;
45342;SDS011;31077;50.872;4.352;2023-02-28T16:16:50;3.03;;;1.38;;
45342;SDS011;31077;50.872;4.352;2023-02-28T16:19:18;1.88;;;1.42;;
45342;SDS011;31077;50.872;4.352;2023-02-28T16:21:44;2.58;;;1.30;;
45342;SDS011;31077;50.872;4.352;2023-02-28T16:24:10;1.75;;;1.30;;
45342;SDS011;31077;50.872;4.352;2023-02-28T16:26:36;2.85;;;1.65;;
45342;SDS011;31077;50.872;4.352;2023-02-28T16:29:04;2.10;;;1.40;;
45342;SDS011;31077;50.872;4.352;2023-02-28T16:31:32;3.03;;;1.55;;
45342;SDS011;31077;50.872;4.352;2023-02-28T16:34:01;5.22;;;1.73;;
45342;SDS011;31077;50.872;4.352;2023-02-28T16:36:28;2.70;;;1.60;;
45342;SDS011;31077;50.872;4.352;2023-02-28T16:38:57;1.98;;;1.48;;
45342;SDS011;31077;50.872;4.352;2023-02-28T16:41:26;1.38;;;1.23;;
45342;SDS011;31077;50.872;4.352;2023-02-28T16:43:54;1.77;;;1.20;;
45342;SDS011;31077;50.872;4.352;2023-02-28T16:46:24;3.67;;;1.38;;
45342;SDS011;31077;50.872;4.352;2023-02-28T16:48:59;2.92;;;1.90;;
45342;SDS011;31077;50.872;4.352;2023-02-28T16:51:25;3.22;;;1.60;;
45342;SDS011;31077;50.872;4.352;2023-02-28T16:53:50;2.10;;;1.42;;
45342;SDS011;31077;50.872;4.352;2023-02-28T16:58:44;2.50;;;1.48;;
45342;SDS011;31077;50.872;4.352;2023-02-28T17:01:10;2.03;;;1.40;;
45342;SDS011;31077;50.872;4.352;2023-02-28T17:03:36;2.20;;;1.50;;
45342;SDS011;31077;50.872;4.352;2023-02-28T17:06:03;2.90;;;1.70;;
45342;SDS011;31077;50.872;4.352;2023-02-28T17:08:30;2.10;;;1.60;;
45342;SDS011;31077;50.872;4.352;2023-02-28T17:10:57;2.58;;;1.73;;
45342;SDS011;31077;50.872;4.352;2023-02-28T17:13:24;2.47;;;1.70;;
45342;SDS011;31077;50.872;4.352;2023-02-28T17:15:50;2.90;;;2.15;;
45342;SDS011;31077;50.872;4.352;2023-02-28T17:18:16;2.05;;;1.45;;
45342;SDS011;31077;50.872;4.352;2023-02-28T17:20:44;2.50;;;1.70;;
45342;SDS011;31077;50.872;4.352;2023-02-28T17:23:10;3.13;;;1.95;;